sensor_id;sensor_type;location;lat;lon;timestamp;pressure;altitude;pressure_sealevel;temperature;humidity
79400;BME280;68856;45.586;10.264;2023-07-20T00:02:04;98775.88;;;25.67;100.00
79400;BME280;68856;45.586;10.264;2023-07-20T00:04:31;98771.47;;;25.66;100.00
79400;BME280;68856;45.586;10.264;2023-07-20T00:06:58;98784.34;;;25.35;100.00
79400;BME280;68856;45.586;10.264;2023-07-20T00:09:26;98788.34;;;25.19;100.00
79400;BME280;68856;45.586;10.264;2023-07-20T00:11:53;98799.25;;;25.27;100.00
79400;BME280;68856;45.586;10.264;2023-07-20T00:14:20;98828.44;;;25.37;100.00
79400;BME280;68856;45.586;10.264;2023-07-20T00:16:47;98831.97;;;25.50;100.00
79400;BME280;68856;45.586;10.264;2023-07-20T00:19:15;98838.31;;;25.34;100.00
79400;BME280;68856;45.586;10.264;2023-07-20T00:21:42;98852.84;;;25.44;100.00
79400;BME280;68856;45.586;10.264;2023-07-20T00:24:08;98860.38;;;25.59;100.00
79400;BME280;68856;45.586;10.264;2023-07-20T00:26:35;98875.84;;;25.75;100.00
79400;BME280;68856;45.586;10.264;2023-07-20T00:29:01;98877.38;;;25.73;100.00
79400;BME280;68856;45.586;10.264;2023-07-20T00:31:27;98885.78;;;25.76;100.00
79400;BME280;68856;45.586;10.264;2023-07-20T00:33:55;98883.19;;;25.83;100.00
79400;BME280;68856;45.586;10.264;2023-07-20T00:36:21;98872.31;;;25.78;100.00
79400;BME280;68856;45.586;10.264;2023-07-20T00:38:47;98867.66;;;25.82;100.00
79400;BME280;68856;45.586;10.264;2023-07-20T00:41:13;98877.16;;;25.81;100.00
79400;BME280;68856;45.586;10.264;2023-07-20T00:43:40;98887.63;;;25.69;100.00
79400;BME280;68856;45.586;10.264;2023-07-20T00:46:07;98902.66;;;25.33;100.00
79400;BME280;68856;45.586;10.264;2023-07-20T00:48:34;98885.53;;;25.31;100.00
79400;BME280;68856;45.586;10.264;2023-07-20T00:51:00;98876.66;;;25.25;100.00
79400;BME280;68856;45.586;10.264;2023-07-20T00:53:27;98866.50;;;25.33;100.00
79400;BME280;68856;45.586;10.264;2023-07-20T00:55:54;98853.13;;;25.38;100.00
79400;BME280;68856;45.586;10.264;2023-07-20T00:58:21;98828.88;;;25.20;100.00
79400;BME280;68856;45.586;10.264;2023-07-20T01:00:48;98807.31;;;25.32;100.00
79400;BME280;68856;45.586;10.264;2023-07-20T01:03:14;98794.66;;;25.35;100.00
79400;BME280;68856;45.586;10.264;2023-07-20T01:08:51;98797.88;;;24.71;100.00
79400;BME280;68856;45.586;10.264;2023-07-20T01:11:48;98794.66;;;25.00;100.00
79400;BME280;68856;45.586;10.264;2023-07-20T01:14:16;98806.13;;;24.99;100.00
79400;BME280;68856;45.586;10.264;2023-07-20T01:16:43;98793.53;;;25.20;100.00
79400;BME280;68856;45.586;10.264;2023-07-20T01:19:10;98806.13;;;24.99;100.00
79400;BME280;68856;45.586;10.264;2023-07-20T01:22:03;98798.94;;;25.13;100.00
79400;BME280;68856;45.586;10.264;2023-07-20T01:25:03;98806.72;;;25.23;100.00
79400;BME280;68856;45.586;10.264;2023-07-20T01:30:59;98819.69;;;25.00;100.00
79400;BME280;68856;45.586;10.264;2023-07-20T01:33:29;98815.09;;;25.08;100.00
79400;BME280;68856;45.586;10.264;2023-07-20T01:35:59;98824.66;;;25.26;100.00
79400;BME280;68856;45.586;10.264;2023-07-20T01:38:26;98816.53;;;25.36;100.00
79400;BME280;68856;45.586;10.264;2023-07-20T01:40:53;98821.72;;;25.38;100.00
79400;BME280;68856;45.586;10.264;2023-07-20T01:43:20;98810.69;;;25.42;100.00
79400;BME280;68856;45.586;10.264;2023-07-20T01:45:46;98816.81;;;25.47;100.00
79400;BME280;68856;45.586;10.264;2023-07-20T01:48:13;98809.44;;;25.39;100.00
79400;BME280;68856;45.586;10.264;2023-07-20T01:50:39;98806.38;;;25.44;100.00
79400;BME280;68856;45.586;10.264;2023-07-20T01:53:05;98797.69;;;25.46;100.00
79400;BME280;68856;45.586;10.264;2023-07-20T01:55:32;98790.78;;;25.39;100.00
79400;BME280;68856;45.586;10.264;2023-07-20T01:57:58;98784.94;;;25.45;100.00
79400;BME280;68856;45.586;10.264;2023-07-20T02:00:26;98772.09;;;25.40;100.00
79400;BME280;68856;45.586;10.264;2023-07-20T02:02:52;98773.72;;;25.41;100.00
79400;BME280;68856;45.586;10.264;2023-07-20T02:05:18;98775.78;;;25.44;100.00
79400;BME280;68856;45.586;10.264;2023-07-20T02:07:45;98768.88;;;25.38;100.00
79400;BME280;68856;45.586;10.264;2023-07-20T02:10:11;98764.13;;;25.38;100.00
79400;BME280;68856;45.586;10.264;2023-07-20T02:12:38;98753.44;;;25.21;100.00
79400;BME280;68856;45.586;10.264;2023-07-20T02:15:04;98759.66;;;25.15;100.00
79400;BME280;68856;45.586;10.264;2023-07-20T02:17:31;98755.81;;;25.04;100.00
79400;BME280;68856;45.586;10.264;2023-07-20T02:19:57;98751.78;;;25.01;100.00
79400;BME280;68856;45.586;10.264;2023-07-20T02:22:24;98747.81;;;25.18;100.00
79400;BME280;68856;45.586;10.264;2023-07-20T02:24:50;98756.22;;;25.21;100.00
79400;BME280;68856;45.586;10.264;2023-07-20T02:27:17;98765.63;;;25.17;100.00
79400;BME280;68856;45.586;10.264;2023-07-20T02:29:43;98776.38;;;24.99;100.00
79400;BME280;68856;45.586;10.264;2023-07-20T02:32:09;98774.66;;;25.10;100.00
79400;BME280;68856;45.586;10.264;2023-07-20T02:34:36;98776.53;;;25.06;100.00
79400;BME280;68856;45.586;10.264;2023-07-20T02:37:03;98773.25;;;25.01;100.00
79400;BME280;68856;45.586;10.264;2023-07-20T02:39:30;98776.09;;;25.04;100.00
79400;BME280;68856;45.586;10.264;2023-07-20T02:41:56;98769.59;;;25.16;100.00
79400;BME280;68856;45.586;10.264;2023-07-20T02:44:22;98774.06;;;25.20;100.00
79400;BME280;68856;45.586;10.264;2023-07-20T02:46:49;98778.47;;;25.21;100.00
79400;BME280;68856;45.586;10.264;2023-07-20T02:49:15;98776.13;;;24.89;100.00
79400;BME280;68856;45.586;10.264;2023-07-20T02:51:42;98772.63;;;24.92;100.00
79400;BME280;68856;45.586;10.264;2023-07-20T02:54:08;98775.50;;;24.95;100.00
79400;BME280;68856;45.586;10.264;2023-07-20T02:56:35;98768.50;;;24.86;100.00
79400;BME280;68856;45.586;10.264;2023-07-20T02:59:04;98766.09;;;24.84;100.00
79400;BME280;68856;45.586;10.264;2023-07-20T03:01:30;98768.44;;;24.82;100.00
79400;BME280;68856;45.586;10.264;2023-07-20T03:03:56;98769.66;;;25.00;100.00
79400;BME280;68856;45.586;10.264;2023-07-20T03:06:23;98766.78;;;24.97;100.00
79400;BME280;68856;45.586;10.264;2023-07-20T03:08:50;98771.47;;;24.93;100.00
79400;BME280;68856;45.586;10.264;2023-07-20T03:11:18;98766.69;;;24.93;100.00
79400;BME280;68856;45.586;10.264;2023-07-20T03:13:45;98767.78;;;24.89;100.00
79400;BME280;68856;45.586;10.264;2023-07-20T03:16:13;98765.91;;;24.77;100.00
79400;BME280;68856;45.586;10.264;2023-07-20T03:18:41;98766.91;;;24.85;100.00
79400;BME280;68856;45.586;10.264;2023-07-20T03:21:09;98775.69;;;24.87;100.00
79400;BME280;68856;45.586;10.264;2023-07-20T03:23:38;98776.41;;;24.84;100.00
79400;BME280;68856;45.586;10.264;2023-07-20T03:26:04;98781.31;;;24.90;100.00
79400;BME280;68856;45.586;10.264;2023-07-20T03:28:30;98773.88;;;24.94;100.00
79400;BME280;68856;45.586;10.264;2023-07-20T03:30:57;98772.00;;;24.98;100.00
79400;BME280;68856;45.586;10.264;2023-07-20T03:33:28;98774.03;;;25.01;100.00
79400;BME280;68856;45.586;10.264;2023-07-20T03:35:55;98775.41;;;24.92;100.00
79400;BME280;68856;45.586;10.264;2023-07-20T03:38:22;98785.09;;;24.82;100.00
79400;BME280;68856;45.586;10.264;2023-07-20T03:43:18;98789.28;;;24.76;100.00
79400;BME280;68856;45.586;10.264;2023-07-20T03:45:44;98782.91;;;24.75;100.00
79400;BME280;68856;45.586;10.264;2023-07-20T03:48:16;98778.44;;;24.55;100.00
79400;BME280;68856;45.586;10.264;2023-07-20T03:50:46;98784.81;;;24.40;100.00
79400;BME280;68856;45.586;10.264;2023-07-20T03:53:13;98788.69;;;24.67;100.00
79400;BME280;68856;45.586;10.264;2023-07-20T03:55:41;98790.66;;;24.66;100.00
79400;BME280;68856;45.586;10.264;2023-07-20T03:58:10;98797.72;;;24.64;100.00
79400;BME280;68856;45.586;10.264;2023-07-20T04:00:36;98784.09;;;24.74;100.00
79400;BME280;68856;45.586;10.264;2023-07-20T04:03:02;98793.00;;;24.80;100.00
79400;BME280;68856;45.586;10.264;2023-07-20T04:05:28;98791.25;;;24.75;100.00
79400;BME280;68856;45.586;10.264;2023-07-20T04:07:55;98789.19;;;24.72;100.00
79400;BME280;68856;45.586;10.264;2023-07-20T04:10:21;98787.88;;;24.66;100.00
79400;BME280;68856;45.586;10.264;2023-07-20T04:12:47;98791.91;;;24.69;100.00
79400;BME280;68856;45.586;10.264;2023-07-20T04:15:14;98791.25;;;24.75;100.00
79400;BME280;68856;45.586;10.264;2023-07-20T04:17:41;98788.69;;;24.67;100.00
79400;BME280;68856;45.586;10.264;2023-07-20T04:20:08;98790.91;;;24.61;100.00
79400;BME280;68856;45.586;10.264;2023-07-20T04:22:35;98786.97;;;24.62;100.00
79400;BME280;68856;45.586;10.264;2023-07-20T04:25:02;98786.50;;;24.60;100.00
79400;BME280;68856;45.586;10.264;2023-07-20T04:27:28;98788.94;;;24.62;100.00
79400;BME280;68856;45.586;10.264;2023-07-20T04:29:55;98791.47;;;24.67;100.00
79400;BME280;68856;45.586;10.264;2023-07-20T04:32:22;98792.72;;;24.54;100.00
79400;BME280;68856;45.586;10.264;2023-07-20T04:34:48;98793.25;;;24.59;100.00
79400;BME280;68856;45.586;10.264;2023-07-20T04:37:14;98795.22;;;24.59;100.00
79400;BME280;68856;45.586;10.264;2023-07-20T04:39:41;98793.03;;;24.68;100.00
79400;BME280;68856;45.586;10.264;2023-07-20T04:42:07;98787.22;;;24.73;100.00
79400;BME280;68856;45.586;10.264;2023-07-20T04:44:34;98782.47;;;24.73;100.00
79400;BME280;68856;45.586;10.264;2023-07-20T04:47:00;98789.13;;;24.69;100.00
79400;BME280;68856;45.586;10.264;2023-07-20T04:49:26;98782.94;;;24.60;100.00
79400;BME280;68856;45.586;10.264;2023-07-20T04:51:53;98788.75;;;24.70;100.00
79400;BME280;68856;45.586;10.264;2023-07-20T04:54:19;98784.44;;;24.73;100.00
79400;BME280;68856;45.586;10.264;2023-07-20T04:56:45;98788.13;;;24.77;100.00
79400;BME280;68856;45.586;10.264;2023-07-20T04:59:12;98785.81;;;24.79;100.00
79400;BME280;68856;45.586;10.264;2023-07-20T05:01:38;98788.59;;;24.79;100.00
79400;BME280;68856;45.586;10.264;2023-07-20T05:04:04;98787.44;;;24.80;100.00
79400;BME280;68856;45.586;10.264;2023-07-20T05:06:30;98793.06;;;24.84;100.00
79400;BME280;68856;45.586;10.264;2023-07-20T05:08:57;98796.22;;;24.82;100.00
79400;BME280;68856;45.586;10.264;2023-07-20T05:11:23;98786.25;;;24.81;100.00
79400;BME280;68856;45.586;10.264;2023-07-20T05:13:49;98786.25;;;24.81;100.00
79400;BME280;68856;45.586;10.264;2023-07-20T05:16:16;98782.91;;;24.75;100.00
79400;BME280;68856;45.586;10.264;2023-07-20T05:18:43;98790.09;;;24.76;100.00
79400;BME280;68856;45.586;10.264;2023-07-20T05:21:09;98792.63;;;24.82;100.00
79400;BME280;68856;45.586;10.264;2023-07-20T05:23:35;98790.56;;;24.78;100.00
79400;BME280;68856;45.586;10.264;2023-07-20T05:26:01;98786.69;;;24.83;100.00
79400;BME280;68856;45.586;10.264;2023-07-20T05:28:28;98796.22;;;24.82;100.00
79400;BME280;68856;45.586;10.264;2023-07-20T05:30:55;98803.84;;;24.85;100.00
79400;BME280;68856;45.586;10.264;2023-07-20T05:33:22;98789.56;;;24.87;100.00
79400;BME280;68856;45.586;10.264;2023-07-20T05:35:48;98794.75;;;24.88;100.00
79400;BME280;68856;45.586;10.264;2023-07-20T05:38:14;98799.53;;;24.88;100.00
79400;BME280;68856;45.586;10.264;2023-07-20T05:40:42;98800.41;;;24.92;100.00
79400;BME280;68856;45.586;10.264;2023-07-20T05:43:11;98803.63;;;24.94;100.00
79400;BME280;68856;45.586;10.264;2023-07-20T05:45:41;98799.25;;;24.93;100.00
79400;BME280;68856;45.586;10.264;2023-07-20T05:48:08;98804.44;;;24.94;100.00
79400;BME280;68856;45.586;10.264;2023-07-20T05:50:35;98807.66;;;24.96;100.00
79400;BME280;68856;45.586;10.264;2023-07-20T05:53:02;98815.22;;;24.96;100.00
79400;BME280;68856;45.586;10.264;2023-07-20T05:55:28;98815.28;;;24.99;100.00
79400;BME280;68856;45.586;10.264;2023-07-20T05:57:54;98816.47;;;24.98;100.00
79400;BME280;68856;45.586;10.264;2023-07-20T06:00:22;98822.91;;;25.02;100.00
79400;BME280;68856;45.586;10.264;2023-07-20T06:02:53;98816.63;;;25.05;100.00
79400;BME280;68856;45.586;10.264;2023-07-20T06:05:21;98820.66;;;25.08;100.00
79400;BME280;68856;45.586;10.264;2023-07-20T06:07:47;98815.53;;;25.10;100.00
79400;BME280;68856;45.586;10.264;2023-07-20T06:10:14;98814.81;;;25.13;100.00
79400;BME280;68856;45.586;10.264;2023-07-20T06:12:40;98821.63;;;25.15;100.00
79400;BME280;68856;45.586;10.264;2023-07-20T06:15:25;98810.97;;;25.02;100.00
79400;BME280;68856;45.586;10.264;2023-07-20T06:17:53;98812.38;;;25.11;100.00
79400;BME280;68856;45.586;10.264;2023-07-20T06:20:20;98804.41;;;25.10;100.00
79400;BME280;68856;45.586;10.264;2023-07-20T06:22:47;98815.25;;;25.15;100.00
79400;BME280;68856;45.586;10.264;2023-07-20T06:25:13;98814.81;;;25.13;100.00
79400;BME280;68856;45.586;10.264;2023-07-20T06:27:40;98802.88;;;25.12;100.00
79400;BME280;68856;45.586;10.264;2023-07-20T06:30:07;98805.47;;;25.21;100.00
79400;BME280;68856;45.586;10.264;2023-07-20T06:32:33;98803.56;;;25.25;100.00
79400;BME280;68856;45.586;10.264;2023-07-20T06:34:59;98808.59;;;25.19;100.00
79400;BME280;68856;45.586;10.264;2023-07-20T06:37:25;98807.44;;;25.20;100.00
79400;BME280;68856;45.586;10.264;2023-07-20T06:39:52;98812.56;;;25.18;100.00
79400;BME280;68856;45.586;10.264;2023-07-20T06:42:18;98809.13;;;25.25;100.00
79400;BME280;68856;45.586;10.264;2023-07-20T06:44:44;98810.75;;;25.26;100.00
79400;BME280;68856;45.586;10.264;2023-07-20T06:47:11;98812.81;;;25.29;100.00
79400;BME280;68856;45.586;10.264;2023-07-20T06:49:38;98802.97;;;25.35;100.00
79400;BME280;68856;45.586;10.264;2023-07-20T06:52:05;98819.75;;;25.38;100.00
79400;BME280;68856;45.586;10.264;2023-07-20T06:54:31;98809.44;;;25.39;100.00
79400;BME280;68856;45.586;10.264;2023-07-20T06:56:58;98813.47;;;25.42;100.00
79400;BME280;68856;45.586;10.264;2023-07-20T06:59:24;98811.94;;;25.44;100.00
79400;BME280;68856;45.586;10.264;2023-07-20T07:01:50;98809.16;;;25.44;100.00
79400;BME280;68856;45.586;10.264;2023-07-20T07:04:17;98808.81;;;25.46;100.00
79400;BME280;68856;45.586;10.264;2023-07-20T07:06:43;98806.94;;;25.50;100.00
79400;BME280;68856;45.586;10.264;2023-07-20T07:09:10;98813.22;;;25.47;100.00
79400;BME280;68856;45.586;10.264;2023-07-20T07:11:36;98809.78;;;25.53;100.00
79400;BME280;68856;45.586;10.264;2023-07-20T07:14:03;98813.06;;;25.59;100.00
79400;BME280;68856;45.586;10.264;2023-07-20T07:16:29;98813.78;;;25.56;100.00
79400;BME280;68856;45.586;10.264;2023-07-20T07:18:55;98811.53;;;25.61;100.00
79400;BME280;68856;45.586;10.264;2023-07-20T07:21:21;98813.59;;;25.64;100.00
79400;BME280;68856;45.586;10.264;2023-07-20T07:23:48;98811.97;;;25.63;100.00
79400;BME280;68856;45.586;10.264;2023-07-20T07:26:15;98811.63;;;25.65;100.00
79400;BME280;68856;45.586;10.264;2023-07-20T07:28:42;98812.63;;;25.57;100.00
79400;BME280;68856;45.586;10.264;2023-07-20T07:31:08;98805.25;;;25.64;100.00
79400;BME280;68856;45.586;10.264;2023-07-20T07:33:35;98808.41;;;25.63;100.00
79400;BME280;68856;45.586;10.264;2023-07-20T07:36:01;98818.63;;;25.59;100.00
79400;BME280;68856;45.586;10.264;2023-07-20T07:38:27;98813.97;;;25.63;100.00
79400;BME280;68856;45.586;10.264;2023-07-20T07:40:54;98817.25;;;25.68;100.00
79400;BME280;68856;45.586;10.264;2023-07-20T07:43:20;98814.53;;;25.72;100.00
79400;BME280;68856;45.586;10.264;2023-07-20T07:45:46;98813.28;;;25.69;100.00
79400;BME280;68856;45.586;10.264;2023-07-20T07:48:13;98821.28;;;25.71;100.00
79400;BME280;68856;45.586;10.264;2023-07-20T07:50:40;98817.47;;;25.79;100.00
79400;BME280;68856;45.586;10.264;2023-07-20T07:53:08;98815.94;;;25.81;100.00
79400;BME280;68856;45.586;10.264;2023-07-20T07:55:37;98809.63;;;25.84;100.00
79400;BME280;68856;45.586;10.264;2023-07-20T07:58:04;98814.03;;;25.85;100.00
79400;BME280;68856;45.586;10.264;2023-07-20T08:00:30;98814.56;;;25.91;100.00
79400;BME280;68856;45.586;10.264;2023-07-20T08:02:56;98811.31;;;25.89;100.00
79400;BME280;68856;45.586;10.264;2023-07-20T08:05:22;98812.50;;;25.88;100.00
79400;BME280;68856;45.586;10.264;2023-07-20T08:07:49;98811.59;;;25.84;100.00
79400;BME280;68856;45.586;10.264;2023-07-20T08:10:15;98818.56;;;25.93;100.00
79400;BME280;68856;45.586;10.264;2023-07-20T08:12:41;98815.50;;;25.98;100.00
79400;BME280;68856;45.586;10.264;2023-07-20T08:15:11;98822.59;;;25.96;100.00
79400;BME280;68856;45.586;10.264;2023-07-20T08:17:43;98827.78;;;25.97;100.00
79400;BME280;68856;45.586;10.264;2023-07-20T08:20:13;98837.91;;;26.06;100.00
79400;BME280;68856;45.586;10.264;2023-07-20T08:22:40;98845.94;;;26.11;100.00
79400;BME280;68856;45.586;10.264;2023-07-20T08:25:07;98848.38;;;26.12;100.00
79400;BME280;68856;45.586;10.264;2023-07-20T08:27:34;98844.53;;;26.17;100.00
79400;BME280;68856;45.586;10.264;2023-07-20T08:30:01;98842.97;;;26.19;100.00
79400;BME280;68856;45.586;10.264;2023-07-20T08:32:27;98850.56;;;26.22;100.00
79400;BME280;68856;45.586;10.264;2023-07-20T08:34:53;98842.22;;;26.22;100.00
79400;BME280;68856;45.586;10.264;2023-07-20T08:37:19;98839.38;;;26.19;100.00
79400;BME280;68856;45.586;10.264;2023-07-20T08:39:46;98846.53;;;26.20;100.00
79400;BME280;68856;45.586;10.264;2023-07-20T08:42:13;98838.69;;;26.25;100.00
79400;BME280;68856;45.586;10.264;2023-07-20T08:44:41;98834.75;;;26.26;100.00
79400;BME280;68856;45.586;10.264;2023-07-20T08:47:07;98849.53;;;26.30;100.00
79400;BME280;68856;45.586;10.264;2023-07-20T08:49:35;98847.25;;;26.36;100.00
79400;BME280;68856;45.586;10.264;2023-07-20T08:52:02;98847.25;;;26.36;100.00
79400;BME280;68856;45.586;10.264;2023-07-20T08:54:31;98852.53;;;26.41;100.00
79400;BME280;68856;45.586;10.264;2023-07-20T08:57:04;98852.53;;;26.41;100.00
79400;BME280;68856;45.586;10.264;2023-07-20T08:59:31;98855.31;;;26.41;100.00
79400;BME280;68856;45.586;10.264;2023-07-20T09:01:59;98849.44;;;26.46;100.00
79400;BME280;68856;45.586;10.264;2023-07-20T09:04:26;98851.13;;;26.50;100.00
79400;BME280;68856;45.586;10.264;2023-07-20T09:06:52;98844.44;;;26.55;100.00
79400;BME280;68856;45.586;10.264;2023-07-20T09:09:18;98847.88;;;26.48;100.00
79400;BME280;68856;45.586;10.264;2023-07-20T09:11:48;98839.28;;;26.57;100.00
79400;BME280;68856;45.586;10.264;2023-07-20T09:14:15;98848.38;;;26.54;100.00
79400;BME280;68856;45.586;10.264;2023-07-20T09:16:49;98843.69;;;26.58;100.00
79400;BME280;68856;45.586;10.264;2023-07-20T09:19:16;98838.59;;;26.63;100.00
79400;BME280;68856;45.586;10.264;2023-07-20T09:21:50;98850.97;;;26.66;100.00
79400;BME280;68856;45.586;10.264;2023-07-20T09:24:20;98843.06;;;26.68;100.00
79400;BME280;68856;45.586;10.264;2023-07-20T09:26:47;98840.28;;;26.68;100.00
79400;BME280;68856;45.586;10.264;2023-07-20T09:29:20;98848.41;;;26.77;100.00
79400;BME280;68856;45.586;10.264;2023-07-20T09:34:26;98837.72;;;26.79;100.00
79400;BME280;68856;45.586;10.264;2023-07-20T09:36:53;98844.88;;;26.80;100.00
79400;BME280;68856;45.586;10.264;2023-07-20T09:39:20;98842.59;;;26.85;100.00
79400;BME280;68856;45.586;10.264;2023-07-20T09:41:46;98841.75;;;26.81;100.00
79400;BME280;68856;45.586;10.264;2023-07-20T09:44:14;98847.00;;;26.86;100.00
79400;BME280;68856;45.586;10.264;2023-07-20T09:46:50;98843.16;;;26.94;100.00
79400;BME280;68856;45.586;10.264;2023-07-20T09:49:18;98841.59;;;26.97;100.00
79400;BME280;68856;45.586;10.264;2023-07-20T09:51:45;98837.63;;;26.98;100.00
79400;BME280;68856;45.586;10.264;2023-07-20T09:54:13;98838.44;;;26.98;100.00
79400;BME280;68856;45.586;10.264;2023-07-20T09:56:41;98834.56;;;27.06;100.00
79400;BME280;68856;45.586;10.264;2023-07-20T09:59:08;98840.50;;;27.05;100.00
79400;BME280;68856;45.586;10.264;2023-07-20T10:01:35;98836.97;;;27.08;100.00
79400;BME280;68856;45.586;10.264;2023-07-20T10:04:04;98829.06;;;27.10;100.00
79400;BME280;68856;45.586;10.264;2023-07-20T10:06:33;98825.50;;;27.13;100.00
79400;BME280;68856;45.586;10.264;2023-07-20T10:09:04;98827.97;;;27.18;100.00
79400;BME280;68856;45.586;10.264;2023-07-20T10:11:34;98823.16;;;27.15;100.00
79400;BME280;68856;45.586;10.264;2023-07-20T10:14:03;98817.28;;;27.23;100.00
79400;BME280;68856;45.586;10.264;2023-07-20T10:16:35;98826.16;;;27.29;100.00
79400;BME280;68856;45.586;10.264;2023-07-20T10:19:13;98818.59;;;27.30;100.00
79400;BME280;68856;45.586;10.264;2023-07-20T10:21:47;98821.78;;;27.32;100.00
79400;BME280;68856;45.586;10.264;2023-07-20T10:24:15;98818.25;;;27.35;100.00
79400;BME280;68856;45.586;10.264;2023-07-20T10:26:42;98809.59;;;27.40;100.00
79400;BME280;68856;45.586;10.264;2023-07-20T10:29:09;98815.53;;;27.38;100.00
79400;BME280;68856;45.586;10.264;2023-07-20T10:31:37;98813.53;;;27.39;100.00
79400;BME280;68856;45.586;10.264;2023-07-20T10:34:04;98816.78;;;27.41;100.00
79400;BME280;68856;45.586;10.264;2023-07-20T10:36:30;98813.69;;;27.49;100.00
79400;BME280;68856;45.586;10.264;2023-07-20T10:38:57;98806.47;;;27.45;100.00
79400;BME280;68856;45.586;10.264;2023-07-20T10:41:35;98810.50;;;27.47;100.00
79400;BME280;68856;45.586;10.264;2023-07-20T10:44:07;98810.09;;;27.49;100.00
79400;BME280;68856;45.586;10.264;2023-07-20T10:46:43;98811.03;;;27.56;100.00
79400;BME280;68856;45.586;10.264;2023-07-20T10:49:14;98807.44;;;27.59;100.00
79400;BME280;68856;45.586;10.264;2023-07-20T10:51:48;98802.31;;;27.61;100.00
79400;BME280;68856;45.586;10.264;2023-07-20T10:54:35;98793.16;;;27.64;100.00
79400;BME280;68856;45.586;10.264;2023-07-20T10:57:38;98799.13;;;27.63;100.00
79400;BME280;68856;45.586;10.264;2023-07-20T11:00:25;98792.81;;;27.69;100.00
79400;BME280;68856;45.586;10.264;2023-07-20T11:02:58;98788.88;;;27.70;100.00
79400;BME280;68856;45.586;10.264;2023-07-20T11:05:38;98790.16;;;27.80;100.00
79400;BME280;68856;45.586;10.264;2023-07-20T11:08:10;98788.78;;;27.97;100.00
79400;BME280;68856;45.586;10.264;2023-07-20T11:10:37;98784.25;;;27.85;100.00
79400;BME280;68856;45.586;10.264;2023-07-20T11:13:23;98781.09;;;27.90;100.00
79400;BME280;68856;45.586;10.264;2023-07-20T11:18:26;98785.28;;;28.03;100.00
79400;BME280;68856;45.586;10.264;2023-07-20T11:20:53;98782.38;;;27.96;100.00
79400;BME280;68856;45.586;10.264;2023-07-20T11:23:23;98773.66;;;27.98;100.00
79400;BME280;68856;45.586;10.264;2023-07-20T11:25:51;98760.84;;;27.97;100.00
79400;BME280;68856;45.586;10.264;2023-07-20T11:28:17;98772.13;;;28.04;100.00
79400;BME280;68856;45.586;10.264;2023-07-20T11:30:43;98765.38;;;28.05;100.00
79400;BME280;68856;45.586;10.264;2023-07-20T11:33:10;98764.16;;;28.06;100.00
79400;BME280;68856;45.586;10.264;2023-07-20T11:35:42;98763.47;;;28.16;100.00
79400;BME280;68856;45.586;10.264;2023-07-20T11:38:10;98755.53;;;28.18;100.00
79400;BME280;68856;45.586;10.264;2023-07-20T11:40:45;98751.13;;;28.17;100.00
79400;BME280;68856;45.586;10.264;2023-07-20T11:43:15;98755.53;;;28.18;100.00
79400;BME280;68856;45.586;10.264;2023-07-20T11:45:42;98744.72;;;28.16;100.00
79400;BME280;68856;45.586;10.264;2023-07-20T11:48:17;98751.97;;;28.24;100.00
79400;BME280;68856;45.586;10.264;2023-07-20T11:50:44;98745.22;;;28.25;100.00
79400;BME280;68856;45.586;10.264;2023-07-20T11:53:11;98749.28;;;28.35;100.00
79400;BME280;68856;45.586;10.264;2023-07-20T11:55:39;98741.88;;;28.53;100.00
79400;BME280;68856;45.586;10.264;2023-07-20T11:58:07;98739.75;;;28.39;100.00
79400;BME280;68856;45.586;10.264;2023-07-20T12:00:35;98742.94;;;28.38;100.00
79400;BME280;68856;45.586;10.264;2023-07-20T12:03:04;98735.81;;;28.44;100.00
79400;BME280;68856;45.586;10.264;2023-07-20T12:05:33;98738.00;;;28.68;100.00
79400;BME280;68856;45.586;10.264;2023-07-20T12:07:59;98742.84;;;28.71;100.00
79400;BME280;68856;45.586;10.264;2023-07-20T12:10:27;98731.53;;;28.61;100.00
79400;BME280;68856;45.586;10.264;2023-07-20T12:12:54;98741.47;;;28.55;100.00
79400;BME280;68856;45.586;10.264;2023-07-20T12:15:26;98737.75;;;28.87;100.00
79400;BME280;68856;45.586;10.264;2023-07-20T12:17:57;98732.91;;;28.81;100.00
79400;BME280;68856;45.586;10.264;2023-07-20T12:22:52;98733.38;;;28.90;100.00
79400;BME280;68856;45.586;10.264;2023-07-20T12:25:20;98732.69;;;29.03;100.00
79400;BME280;68856;45.586;10.264;2023-07-20T12:27:47;98733.09;;;29.06;100.00
79400;BME280;68856;45.586;10.264;2023-07-20T12:30:13;98730.59;;;28.93;100.00
79400;BME280;68856;45.586;10.264;2023-07-20T12:32:40;98727.50;;;29.06;100.00
79400;BME280;68856;45.586;10.264;2023-07-20T12:35:07;98718.44;;;29.26;100.00
79400;BME280;68856;45.586;10.264;2023-07-20T12:37:33;98723.53;;;29.14;100.00
79400;BME280;68856;45.586;10.264;2023-07-20T12:40:00;98723.22;;;29.26;100.00
79400;BME280;68856;45.586;10.264;2023-07-20T12:42:26;98717.13;;;29.17;100.00
79400;BME280;68856;45.586;10.264;2023-07-20T12:44:52;98707.91;;;29.09;100.00
79400;BME280;68856;45.586;10.264;2023-07-20T12:47:19;98709.63;;;29.21;100.00
79400;BME280;68856;45.586;10.264;2023-07-20T12:49:45;98701.75;;;29.47;100.00
79400;BME280;68856;45.586;10.264;2023-07-20T12:52:12;98700.50;;;29.38;100.00
79400;BME280;68856;45.586;10.264;2023-07-20T12:54:39;98706.03;;;29.27;100.00
79400;BME280;68856;45.586;10.264;2023-07-20T12:57:06;98702.16;;;29.49;100.00
79400;BME280;68856;45.586;10.264;2023-07-20T12:59:32;98701.75;;;29.47;100.00
79400;BME280;68856;45.586;10.264;2023-07-20T13:01:59;98689.69;;;29.40;100.00